Time;durP1;ratioP1;P1;durP2;ratioP2;P2;SDS_P1;SDS_P2;PMS_P1;PMS_P2;Temp;Humidity;BMP_temperature;BMP_pressure;BME280_temperature;BME280_humidity;BME280_pressure;Samples;Min_cycle;Max_cycle;Signal;HPM_P1;HPM_P2
2020/12/09 00:00:12;;;;;;;74.63;38.70;;;2.70;99.90;;;;;;4865220;29;20188;-96
2020/12/09 00:02:41;;;;;;;77.80;38.37;;;2.70;99.90;;;;;;4863782;29;20216;-95
2020/12/09 00:05:11;;;;;;;71.80;37.53;;;2.70;99.90;;;;;;4863942;29;20184;-95
2020/12/09 00:07:37;;;;;;;80.20;38.43;;;2.70;99.90;;;;;;4865803;29;20204;-95
2020/12/09 00:10:05;;;;;;;76.20;37.67;;;2.70;99.90;;;;;;4863189;29;20188;-95
2020/12/09 00:12:33;;;;;;;75.67;38.03;;;2.70;99.90;;;;;;4864014;29;20224;-96
2020/12/09 00:14:59;;;;;;;79.57;38.60;;;2.70;99.90;;;;;;4863855;29;20179;-95
2020/12/09 00:17:27;;;;;;;77.63;36.97;;;2.70;99.90;;;;;;4871282;29;20564;-96
2020/12/09 00:19:53;;;;;;;74.23;38.53;;;2.70;99.90;;;;;;4867660;29;20184;-95
2020/12/09 00:22:34;;;;;;;78.93;38.73;;;2.70;99.90;;;;;;4867469;29;20214;-95
2020/12/09 00:25:04;;;;;;;74.70;39.43;;;2.70;99.90;;;;;;4866717;29;20236;-94
2020/12/09 00:27:35;;;;;;;75.43;38.80;;;2.70;99.90;;;;;;4868393;29;20271;-96
2020/12/09 00:30:02;;;;;;;77.67;39.60;;;2.70;99.90;;;;;;4866618;29;20180;-95
2020/12/09 00:32:34;;;;;;;80.73;40.23;;;2.70;99.90;;;;;;4866184;29;20180;-96
2020/12/09 00:35:00;;;;;;;76.63;38.13;;;2.70;99.90;;;;;;4867657;29;20187;-96
2020/12/09 00:37:26;;;;;;;70.67;38.43;;;2.80;99.90;;;;;;4867018;29;20183;-95
2020/12/09 00:39:51;;;;;;;73.80;38.83;;;2.80;99.90;;;;;;4865608;29;20191;-96
2020/12/09 00:42:17;;;;;;;76.27;39.17;;;2.80;99.90;;;;;;4866340;29;20306;-95
2020/12/09 00:44:43;;;;;;;75.43;38.60;;;2.80;99.90;;;;;;4865857;29;20191;-96
2020/12/09 00:47:09;;;;;;;82.87;40.47;;;2.80;99.90;;;;;;4860816;29;20613;-94
2020/12/09 00:49:57;;;;;;;81.10;39.47;;;2.80;99.90;;;;;;4848915;29;20289;-96
2020/12/09 00:52:22;;;;;;;77.10;40.20;;;2.80;99.90;;;;;;4865501;29;20180;-96
2020/12/09 00:54:48;;;;;;;74.93;39.63;;;2.80;99.90;;;;;;4849002;29;20177;-96
2020/12/09 00:57:14;;;;;;;78.33;38.60;;;2.80;99.90;;;;;;4848219;29;20196;-95
2020/12/09 00:59:39;;;;;;;72.60;38.27;;;2.80;99.90;;;;;;4847584;29;20188;-95
2020/12/09 01:02:16;;;;;;;67.60;33.10;;;2.80;99.90;;;;;;4848354;29;20239;-92
2020/12/09 01:04:42;;;;;;;73.47;37.37;;;2.80;99.90;;;;;;4847411;29;20182;-96
2020/12/09 01:07:08;;;;;;;77.23;39.70;;;2.80;99.90;;;;;;4847579;29;20239;-95
2020/12/09 01:09:34;;;;;;;73.97;39.53;;;2.90;99.90;;;;;;4848049;29;20203;-95
2020/12/09 01:12:15;;;;;;;69.87;38.83;;;2.80;99.90;;;;;;4848648;29;20195;-96
2020/12/09 01:14:41;;;;;;;73.60;38.67;;;2.80;99.90;;;;;;4848090;29;20185;-96
2020/12/09 01:17:07;;;;;;;84.13;40.13;;;2.80;99.90;;;;;;4849005;29;20341;-96
2020/12/09 01:19:33;;;;;;;67.17;35.70;;;2.80;99.90;;;;;;4864150;29;20189;-94
2020/12/09 01:22:09;;;;;;;70.03;37.03;;;2.80;99.90;;;;;;4862222;29;20217;-96
2020/12/09 01:24:36;;;;;;;72.17;38.93;;;2.80;99.90;;;;;;4863644;29;20236;-96
2020/12/09 01:27:01;;;;;;;73.83;38.23;;;2.80;99.90;;;;;;5274699;23;20278;-93
2020/12/09 01:29:30;;;;;;;69.03;38.20;;;2.80;99.90;;;;;;4902624;29;20228;-93
2020/12/09 01:31:57;;;;;;;70.57;37.63;;;2.80;99.90;;;;;;4887154;29;20189;-91
2020/12/09 01:34:24;;;;;;;69.20;38.50;;;2.90;99.90;;;;;;4886788;29;20188;-94
2020/12/09 01:36:49;;;;;;;71.00;37.70;;;2.90;99.90;;;;;;4889461;29;20195;-93
2020/12/09 01:39:22;;;;;;;70.90;39.23;;;2.90;99.90;;;;;;4887593;29;20179;-96
2020/12/09 01:41:48;;;;;;;77.57;40.70;;;2.80;99.90;;;;;;4889519;29;20184;-96
2020/12/09 01:44:14;;;;;;;76.33;40.53;;;2.80;99.90;;;;;;4887452;29;20226;-95
2020/12/09 01:46:40;;;;;;;71.90;38.57;;;2.80;99.90;;;;;;4886529;29;20203;-96
2020/12/09 01:49:08;;;;;;;71.97;38.93;;;2.80;99.90;;;;;;4886741;29;20236;-96
2020/12/09 01:51:34;;;;;;;72.37;40.03;;;2.90;99.90;;;;;;4886283;29;20205;-96
2020/12/09 01:54:04;;;;;;;69.93;39.70;;;2.90;99.90;;;;;;4886406;29;20239;-93
2020/12/09 01:56:30;;;;;;;73.57;40.03;;;2.90;99.90;;;;;;4888022;29;20219;-93
2020/12/09 01:58:58;;;;;;;73.17;39.67;;;2.90;99.90;;;;;;4887196;29;20244;-93
2020/12/09 02:01:24;;;;;;;78.00;39.77;;;2.90;99.90;;;;;;4886950;29;20187;-94
2020/12/09 02:03:51;;;;;;;74.17;40.60;;;2.90;99.90;;;;;;4887372;29;20210;-94
2020/12/09 02:06:17;;;;;;;79.30;39.57;;;2.90;99.90;;;;;;4888490;29;20187;-93
2020/12/09 02:08:54;;;;;;;74.43;40.30;;;2.90;99.90;;;;;;4886795;29;20179;-92
2020/12/09 02:11:20;;;;;;;75.53;40.97;;;2.90;99.90;;;;;;4887954;29;20183;-93
2020/12/09 02:13:46;;;;;;;77.63;41.50;;;2.90;99.90;;;;;;4886971;29;20186;-93
2020/12/09 02:16:13;;;;;;;73.50;41.20;;;2.90;99.90;;;;;;4888437;29;20181;-93
2020/12/09 02:18:45;;;;;;;74.60;40.50;;;2.90;99.90;;;;;;4886776;29;20185;-93
2020/12/09 02:21:10;;;;;;;74.10;39.77;;;2.90;99.90;;;;;;4888315;29;20234;-92
2020/12/09 02:23:36;;;;;;;73.73;40.13;;;2.90;99.90;;;;;;4886281;29;20220;-93
2020/12/09 02:26:02;;;;;;;74.07;40.23;;;2.90;99.90;;;;;;4887055;29;20183;-93
2020/12/09 02:28:42;;;;;;;71.33;41.03;;;2.90;99.90;;;;;;4887898;29;20741;-93
2020/12/09 02:31:08;;;;;;;72.20;39.23;;;3.00;99.90;;;;;;4888340;29;20562;-93
2020/12/09 02:33:34;;;;;;;72.37;39.70;;;2.90;99.90;;;;;;4887666;29;20197;-95
2020/12/09 02:35:59;;;;;;;73.00;39.50;;;2.90;99.90;;;;;;4890535;29;20187;-92
2020/12/09 02:38:26;;;;;;;73.17;40.70;;;2.90;99.90;;;;;;4888988;29;20195;-93
2020/12/09 02:40:52;;;;;;;72.50;39.93;;;2.90;99.90;;;;;;4888067;29;20215;-93
2020/12/09 02:43:17;;;;;;;74.40;40.73;;;3.00;99.90;;;;;;4888166;29;20263;-92
2020/12/09 02:45:43;;;;;;;78.00;40.73;;;2.90;99.90;;;;;;4888627;29;20271;-92
2020/12/09 02:48:09;;;;;;;70.90;40.10;;;3.00;99.90;;;;;;4888060;29;20188;-95
2020/12/09 02:50:35;;;;;;;76.13;40.63;;;2.90;99.90;;;;;;4888079;29;20203;-94
2020/12/09 02:53:01;;;;;;;90.93;43.43;;;2.90;99.90;;;;;;4889865;29;20604;-94
2020/12/09 02:55:27;;;;;;;78.77;42.00;;;2.90;99.90;;;;;;4890091;29;20195;-94
2020/12/09 02:57:53;;;;;;;73.30;42.63;;;3.00;99.90;;;;;;4906351;29;20185;-93
2020/12/09 03:00:26;;;;;;;76.13;40.70;;;2.90;99.90;;;;;;4889759;29;20214;-92
2020/12/09 03:02:52;;;;;;;75.53;42.43;;;2.90;99.90;;;;;;4888664;29;20222;-93
2020/12/09 03:05:18;;;;;;;81.43;41.83;;;2.90;99.90;;;;;;4888757;29;20193;-93
2020/12/09 03:07:44;;;;;;;72.93;42.37;;;2.90;99.90;;;;;;4888586;29;20193;-93
2020/12/09 03:10:25;;;;;;;79.43;43.17;;;2.90;99.90;;;;;;4888599;29;20239;-94
2020/12/09 03:12:50;;;;;;;71.73;41.33;;;2.90;99.90;;;;;;4888615;29;20176;-94
2020/12/09 03:15:16;;;;;;;78.93;41.73;;;3.00;99.90;;;;;;4888777;29;20182;-94
2020/12/09 03:17:42;;;;;;;75.30;41.83;;;3.00;99.90;;;;;;4888000;29;20187;-93
2020/12/09 03:20:09;;;;;;;77.10;41.30;;;3.00;99.90;;;;;;4887817;29;20605;-93
2020/12/09 03:22:35;;;;;;;80.23;41.57;;;3.00;99.90;;;;;;4888237;29;20271;-94
2020/12/09 03:25:01;;;;;;;72.50;42.07;;;3.00;99.90;;;;;;4903994;29;20224;-94
2020/12/09 03:27:27;;;;;;;79.60;43.93;;;2.90;99.90;;;;;;4888149;29;20238;-92
2020/12/09 03:29:55;;;;;;;78.10;42.53;;;2.90;99.90;;;;;;4887373;29;20191;-94
2020/12/09 03:32:21;;;;;;;70.77;41.47;;;2.90;99.90;;;;;;4887088;29;20183;-94
2020/12/09 03:34:47;;;;;;;74.73;42.83;;;3.00;99.90;;;;;;4887625;29;20189;-96
2020/12/09 03:37:13;;;;;;;77.93;42.00;;;2.90;99.90;;;;;;4887653;29;20651;-94
2020/12/09 03:39:39;;;;;;;75.10;42.30;;;2.90;99.90;;;;;;4887199;29;20192;-92
2020/12/09 03:42:05;;;;;;;75.43;42.17;;;2.90;99.90;;;;;;4887267;29;20199;-93
2020/12/09 03:44:31;;;;;;;77.30;43.10;;;2.90;99.90;;;;;;4889807;29;20640;-92
2020/12/09 03:46:56;;;;;;;74.47;43.27;;;2.90;99.90;;;;;;4892984;29;20183;-94
2020/12/09 03:49:26;;;;;;;70.20;40.83;;;3.00;99.90;;;;;;4894225;29;20243;-94
2020/12/09 03:51:52;;;;;;;73.97;42.50;;;3.00;99.90;;;;;;4893215;29;20186;-95
2020/12/09 03:54:21;;;;;;;81.17;42.13;;;2.90;99.90;;;;;;4894752;29;20254;-94
2020/12/09 03:56:47;;;;;;;76.40;43.63;;;2.90;99.90;;;;;;4895729;29;20597;-95
2020/12/09 03:59:12;;;;;;;82.40;43.63;;;3.00;99.90;;;;;;4875275;29;20212;-93
2020/12/09 04:01:38;;;;;;;80.00;42.43;;;2.90;99.90;;;;;;4874712;29;20176;-92
2020/12/09 04:04:04;;;;;;;71.63;42.40;;;3.00;99.90;;;;;;4877347;29;20217;-96
2020/12/09 04:06:30;;;;;;;72.07;41.50;;;3.00;99.90;;;;;;4877271;29;20174;-94
2020/12/09 04:08:56;;;;;;;68.97;41.07;;;3.00;99.90;;;;;;4861691;29;20168;-96
2020/12/09 04:11:23;;;;;;;74.47;41.20;;;3.00;99.90;;;;;;4877080;29;20194;-96
2020/12/09 04:13:48;;;;;;;81.30;43.90;;;3.00;99.90;;;;;;4876433;29;20533;-96
2020/12/09 04:16:14;;;;;;;69.87;40.97;;;3.00;99.90;;;;;;4861843;29;20192;-94
2020/12/09 04:18:40;;;;;;;73.27;42.53;;;3.00;99.90;;;;;;4878033;29;20243;-93
2020/12/09 04:21:07;;;;;;;71.43;40.43;;;3.00;99.90;;;;;;4893657;29;20194;-93
2020/12/09 04:23:32;;;;;;;73.97;42.07;;;3.00;99.90;;;;;;4876752;29;20221;-93
2020/12/09 04:25:58;;;;;;;73.93;41.27;;;3.00;99.90;;;;;;4862557;29;20182;-93
2020/12/09 04:28:24;;;;;;;70.37;40.20;;;3.00;99.90;;;;;;4888947;29;20237;-96
2020/12/09 04:30:49;;;;;;;71.43;42.17;;;3.00;99.90;;;;;;4895980;29;20326;-95
2020/12/09 04:33:17;;;;;;;73.80;41.40;;;3.00;99.90;;;;;;4895448;29;20188;-92
2020/12/09 04:35:42;;;;;;;76.80;42.00;;;3.00;99.90;;;;;;4894015;29;20214;-93
2020/12/09 04:38:11;;;;;;;69.43;40.47;;;3.00;99.90;;;;;;4894720;29;20599;-93
2020/12/09 04:40:37;;;;;;;73.87;40.97;;;3.00;99.90;;;;;;4910925;29;20522;-94
2020/12/09 04:43:03;;;;;;;72.60;41.13;;;3.10;99.90;;;;;;4895284;29;20203;-93
2020/12/09 04:45:32;;;;;;;71.97;39.63;;;3.00;99.90;;;;;;4893770;29;20223;-96
2020/12/09 04:48:09;;;;;;;75.73;41.60;;;3.00;99.90;;;;;;4895794;29;20259;-93
2020/12/09 04:51:12;;;;;;;71.97;40.27;;;3.10;99.90;;;;;;4910316;29;20592;-94
2020/12/09 04:53:42;;;;;;;66.30;38.77;;;3.00;99.90;;;;;;4895357;29;20187;-92
2020/12/09 04:56:09;;;;;;;73.20;40.70;;;3.00;99.90;;;;;;4895670;29;20183;-92
2020/12/09 04:58:42;;;;;;;72.87;40.23;;;3.00;99.90;;;;;;4878753;29;20217;-92
2020/12/09 05:01:12;;;;;;;69.77;40.57;;;3.00;99.90;;;;;;4873817;29;20184;-95
2020/12/09 05:03:43;;;;;;;68.83;40.10;;;3.00;99.90;;;;;;4873898;29;20220;-94
2020/12/09 05:06:13;;;;;;;68.33;38.57;;;3.00;99.90;;;;;;4872854;29;20314;-96
2020/12/09 05:08:42;;;;;;;66.83;40.10;;;3.00;99.90;;;;;;4872599;29;20216;-93
2020/12/09 05:11:12;;;;;;;72.30;39.70;;;3.10;99.90;;;;;;4873411;29;20187;-94
2020/12/09 05:13:41;;;;;;;68.73;39.53;;;3.10;99.90;;;;;;4872555;29;20213;-92
2020/12/09 05:16:11;;;;;;;73.93;39.83;;;3.00;99.90;;;;;;4871543;29;20889;-94
2020/12/09 05:18:39;;;;;;;70.57;40.40;;;3.00;99.90;;;;;;4870736;29;20636;-96
2020/12/09 05:21:25;;;;;;;71.33;39.27;;;2.90;99.90;;;;;;4857050;29;20642;-96
2020/12/09 05:23:54;;;;;;;77.03;40.33;;;3.00;99.90;;;;;;4872365;29;20222;-95
2020/12/09 05:26:22;;;;;;;66.87;38.93;;;2.90;99.90;;;;;;4887671;29;20183;-96
2020/12/09 05:29:02;;;;;;;71.07;38.90;;;2.90;99.90;;;;;;4870738;29;20234;-96
2020/12/09 05:31:27;;;;;;;75.20;40.27;;;2.90;99.90;;;;;;4871070;29;20182;-94
2020/12/09 05:33:53;;;;;;;72.47;40.77;;;2.90;99.90;;;;;;4871437;29;20208;-93
2020/12/09 05:36:19;;;;;;;67.97;40.93;;;3.00;99.90;;;;;;4872857;29;20207;-94
2020/12/09 05:38:44;;;;;;;72.43;40.73;;;2.90;99.90;;;;;;4871265;29;20613;-93
2020/12/09 05:41:12;;;;;;;72.33;41.27;;;3.00;99.90;;;;;;4872337;29;20208;-94
2020/12/09 05:43:43;;;;;;;69.40;39.63;;;2.90;99.90;;;;;;4870449;29;20261;-94
2020/12/09 05:46:09;;;;;;;73.50;40.70;;;2.90;99.90;;;;;;4870005;29;20694;-94
2020/12/09 05:48:35;;;;;;;69.67;40.70;;;2.90;99.90;;;;;;4871395;29;20272;-94
2020/12/09 05:51:01;;;;;;;70.10;38.97;;;3.00;99.90;;;;;;4870986;29;20273;-95
2020/12/09 05:53:29;;;;;;;80.80;43.63;;;3.00;99.90;;;;;;4871807;29;20272;-94
2020/12/09 05:56:21;;;;;;;70.30;40.13;;;3.00;99.90;;;;;;4871482;29;20251;-95
2020/12/09 05:58:50;;;;;;;72.57;40.93;;;3.00;99.90;;;;;;4869650;29;20184;-94
2020/12/09 06:01:42;;;;;;;76.63;43.13;;;3.00;99.90;;;;;;4869987;29;20187;-96
2020/12/09 06:04:08;;;;;;;70.70;41.63;;;3.00;99.90;;;;;;4884617;29;20213;-93
2020/12/09 06:06:33;;;;;;;80.80;44.27;;;3.00;99.90;;;;;;4868716;29;20184;-93
2020/12/09 06:09:00;;;;;;;76.73;43.00;;;3.00;99.90;;;;;;4867237;29;20187;-94
2020/12/09 06:11:36;;;;;;;76.60;41.50;;;3.00;99.90;;;;;;4868073;29;20179;-96
2020/12/09 06:14:02;;;;;;;79.23;41.17;;;2.90;99.90;;;;;;4866459;29;20188;-95
2020/12/09 06:16:29;;;;;;;75.87;42.17;;;3.00;99.90;;;;;;4866255;29;20186;-93
2020/12/09 06:18:56;;;;;;;78.67;43.03;;;3.00;99.90;;;;;;4866452;29;20217;-96
2020/12/09 06:21:28;;;;;;;79.97;43.60;;;3.00;99.90;;;;;;4866359;29;20221;-93
2020/12/09 06:23:54;;;;;;;73.97;41.63;;;3.00;99.90;;;;;;4865697;29;20222;-96
2020/12/09 06:26:20;;;;;;;79.40;42.30;;;2.90;99.90;;;;;;4865689;29;20266;-96
2020/12/09 06:28:47;;;;;;;79.83;43.07;;;3.00;99.90;;;;;;4865445;29;20239;-96
2020/12/09 06:31:17;;;;;;;76.57;42.13;;;3.00;99.90;;;;;;4865260;29;20225;-95
2020/12/09 06:33:44;;;;;;;82.40;42.60;;;3.00;99.90;;;;;;4865619;29;20187;-92
2020/12/09 06:36:09;;;;;;;84.67;43.57;;;3.00;99.90;;;;;;4865312;29;20172;-96
2020/12/09 06:38:35;;;;;;;69.47;40.27;;;3.00;99.90;;;;;;4880797;29;20206;-96
2020/12/09 06:41:05;;;;;;;76.07;41.00;;;3.00;99.90;;;;;;4881713;29;20177;-93
2020/12/09 06:43:31;;;;;;;69.47;38.87;;;3.00;99.90;;;;;;4880506;29;20223;-95
2020/12/09 06:45:56;;;;;;;72.80;41.43;;;3.00;99.90;;;;;;4865189;29;20182;-93
2020/12/09 06:48:24;;;;;;;73.70;42.20;;;3.00;99.90;;;;;;4864736;29;20201;-92
2020/12/09 06:50:55;;;;;;;75.73;41.73;;;3.00;99.90;;;;;;4864326;29;20241;-93
2020/12/09 06:53:21;;;;;;;79.87;41.97;;;3.00;99.90;;;;;;4864856;29;20183;-92
2020/12/09 06:55:49;;;;;;;68.00;39.27;;;3.00;99.90;;;;;;4864503;29;20283;-94
2020/12/09 06:58:35;;;;;;;77.93;41.23;;;3.00;99.90;;;;;;4871414;29;20187;-92
2020/12/09 07:01:05;;;;;;;77.43;40.63;;;3.00;99.90;;;;;;4864143;29;20200;-92
2020/12/09 07:03:39;;;;;;;74.90;41.30;;;3.00;99.90;;;;;;4864605;29;20233;-91
2020/12/09 07:06:20;;;;;;;73.57;40.00;;;3.00;99.90;;;;;;4864543;29;20188;-93
2020/12/09 07:08:47;;;;;;;74.90;40.83;;;3.00;99.90;;;;;;4880076;29;20221;-93
2020/12/09 07:11:15;;;;;;;78.83;40.53;;;3.00;99.90;;;;;;4864771;29;20184;-92
2020/12/09 07:13:41;;;;;;;74.83;41.17;;;3.00;99.90;;;;;;4864245;29;20195;-91
2020/12/09 07:16:07;;;;;;;76.00;40.23;;;3.00;99.90;;;;;;4864221;29;20602;-92
2020/12/09 07:18:37;;;;;;;72.03;38.97;;;3.00;99.90;;;;;;4864359;29;20195;-92
2020/12/09 07:21:05;;;;;;;72.40;40.23;;;3.00;99.90;;;;;;4867445;29;20188;-93
2020/12/09 07:23:31;;;;;;;69.27;38.40;;;3.00;99.90;;;;;;4867580;29;20219;-94
2020/12/09 07:25:59;;;;;;;69.83;41.90;;;3.00;99.90;;;;;;4867510;29;20191;-95
2020/12/09 07:28:31;;;;;;;70.67;37.30;;;3.00;99.90;;;;;;4867170;29;20241;-93
2020/12/09 07:31:07;;;;;;;71.00;38.97;;;3.00;99.90;;;;;;4867484;29;20184;-93
2020/12/09 07:33:37;;;;;;;73.47;40.17;;;3.00;99.90;;;;;;4867553;29;20196;-93
2020/12/09 07:36:10;;;;;;;69.33;40.03;;;2.90;99.90;;;;;;4867262;29;20634;-94
2020/12/09 07:38:35;;;;;;;70.47;39.87;;;2.90;99.90;;;;;;4867360;29;20187;-96
2020/12/09 07:41:02;;;;;;;74.43;39.57;;;2.90;99.90;;;;;;4867178;29;20230;-95
2020/12/09 07:43:32;;;;;;;65.63;38.33;;;2.90;99.90;;;;;;4867278;29;20236;-93
2020/12/09 07:46:03;;;;;;;65.83;37.50;;;2.90;99.90;;;;;;4867023;29;20635;-91
2020/12/09 07:48:31;;;;;;;63.43;36.63;;;2.90;99.90;;;;;;4867474;29;20187;-94
2020/12/09 07:50:58;;;;;;;66.63;37.07;;;2.90;99.90;;;;;;4867132;29;20525;-92
2020/12/09 07:53:27;;;;;;;57.93;35.37;;;2.90;99.90;;;;;;4867110;29;20191;-93
2020/12/09 07:55:53;;;;;;;60.73;36.90;;;2.90;99.90;;;;;;4882430;29;20621;-92
2020/12/09 07:58:19;;;;;;;60.70;35.27;;;2.80;99.90;;;;;;4866850;29;20190;-92
2020/12/09 08:00:55;;;;;;;56.57;34.00;;;2.90;99.90;;;;;;4870321;29;20197;-92
2020/12/09 08:03:27;;;;;;;60.83;35.63;;;2.90;99.90;;;;;;4884085;29;20273;-92
2020/12/09 08:05:55;;;;;;;59.90;34.60;;;2.80;99.90;;;;;;4882687;29;20195;-90
2020/12/09 08:08:21;;;;;;;62.83;36.10;;;2.90;99.90;;;;;;4902621;29;20214;-90
2020/12/09 08:10:49;;;;;;;64.37;36.03;;;2.90;99.90;;;;;;4885913;29;20256;-92
2020/12/09 08:13:29;;;;;;;63.93;35.93;;;2.90;99.90;;;;;;4884373;29;20203;-91
2020/12/09 08:16:13;;;;;;;57.67;34.67;;;2.90;99.90;;;;;;4901981;29;20233;-92
2020/12/09 08:18:43;;;;;;;58.93;35.87;;;2.90;99.90;;;;;;4886714;29;20193;-94
2020/12/09 08:21:10;;;;;;;60.23;34.57;;;2.90;99.90;;;;;;4883869;29;20197;-93
2020/12/09 08:23:46;;;;;;;59.33;34.93;;;2.90;99.90;;;;;;4884961;29;20653;-90
2020/12/09 08:26:27;;;;;;;65.17;35.50;;;2.90;99.90;;;;;;4885024;29;20256;-91
2020/12/09 08:28:53;;;;;;;61.77;34.90;;;2.90;99.90;;;;;;4883393;29;20239;-92
2020/12/09 08:31:19;;;;;;;59.67;35.17;;;3.00;99.90;;;;;;4883666;29;20541;-93
2020/12/09 08:33:56;;;;;;;59.37;34.43;;;3.00;99.90;;;;;;4883234;29;20193;-93
2020/12/09 08:36:22;;;;;;;54.17;32.97;;;3.00;99.90;;;;;;4881792;29;20206;-94
2020/12/09 08:38:50;;;;;;;51.67;32.33;;;3.00;99.90;;;;;;4883912;29;20190;-93
2020/12/09 08:41:28;;;;;;;53.13;32.07;;;3.00;99.90;;;;;;4887827;29;20195;-92
2020/12/09 08:44:01;;;;;;;47.63;30.87;;;3.00;99.90;;;;;;4880475;29;20217;-93
2020/12/09 08:46:28;;;;;;;50.83;30.37;;;3.00;99.90;;;;;;4881263;29;20210;-90
2020/12/09 08:48:54;;;;;;;52.87;30.43;;;3.10;99.90;;;;;;4881758;29;20189;-93
2020/12/09 08:51:24;;;;;;;49.57;30.40;;;3.10;99.90;;;;;;4883681;29;20249;-95
2020/12/09 08:54:01;;;;;;;50.50;30.27;;;3.10;99.90;;;;;;4890136;29;20192;-95
2020/12/09 08:56:32;;;;;;;50.50;30.30;;;3.10;99.90;;;;;;4880655;29;20184;-93
2020/12/09 08:58:59;;;;;;;55.30;30.90;;;3.10;99.90;;;;;;4882669;29;20195;-92
2020/12/09 09:01:24;;;;;;;51.73;30.97;;;3.10;99.90;;;;;;4886500;29;20198;-95
2020/12/09 09:03:56;;;;;;;53.10;30.73;;;3.10;99.90;;;;;;4886754;29;20219;-95
2020/12/09 09:06:22;;;;;;;50.43;30.67;;;3.10;99.90;;;;;;4883979;29;20201;-96
2020/12/09 09:08:51;;;;;;;49.33;30.83;;;3.10;99.90;;;;;;4901575;29;20201;-94
2020/12/09 09:11:23;;;;;;;52.10;30.80;;;3.10;99.90;;;;;;4885243;29;20199;-96
2020/12/09 09:14:04;;;;;;;52.63;30.07;;;3.10;99.90;;;;;;4888353;29;20248;-94
2020/12/09 09:16:29;;;;;;;52.43;30.97;;;3.10;99.90;;;;;;4887131;29;20199;-95
2020/12/09 09:18:56;;;;;;;60.33;33.83;;;3.10;99.90;;;;;;4883889;29;20276;-93
2020/12/09 09:21:22;;;;;;;50.37;31.80;;;3.10;99.90;;;;;;4884137;29;20179;-94
2020/12/09 09:23:54;;;;;;;56.10;32.57;;;3.10;99.90;;;;;;4883801;29;20221;-93
2020/12/09 09:26:20;;;;;;;59.40;33.10;;;3.10;99.90;;;;;;4883939;29;20262;-93
2020/12/09 09:28:46;;;;;;;54.67;33.13;;;3.10;99.90;;;;;;4883695;29;20774;-93
2020/12/09 09:31:12;;;;;;;53.27;31.63;;;3.10;99.90;;;;;;4883723;29;20193;-93
2020/12/09 09:33:42;;;;;;;50.90;30.93;;;3.20;99.90;;;;;;4883898;29;20193;-94
2020/12/09 09:36:08;;;;;;;56.13;31.60;;;3.20;99.90;;;;;;4883769;29;20189;-94
2020/12/09 09:38:34;;;;;;;51.70;31.00;;;3.20;99.90;;;;;;4884315;29;20217;-93
2020/12/09 09:40:59;;;;;;;53.37;30.33;;;3.30;99.90;;;;;;4883861;29;20221;-93
2020/12/09 09:43:26;;;;;;;51.40;29.60;;;3.20;99.90;;;;;;4883888;29;20227;-93
2020/12/09 09:45:53;;;;;;;54.63;31.53;;;3.20;99.90;;;;;;4883903;29;20191;-94
2020/12/09 09:48:18;;;;;;;53.03;29.73;;;3.30;99.90;;;;;;4883672;29;20209;-92
2020/12/09 09:50:44;;;;;;;50.03;29.43;;;3.30;99.90;;;;;;4883679;29;20207;-94
2020/12/09 09:53:10;;;;;;;58.57;31.70;;;3.30;99.90;;;;;;4883699;29;20195;-94
2020/12/09 09:55:36;;;;;;;59.57;31.77;;;3.30;99.90;;;;;;4883563;29;20624;-94
2020/12/09 09:58:02;;;;;;;59.03;32.43;;;3.30;99.90;;;;;;4883493;29;20223;-95
2020/12/09 10:00:27;;;;;;;57.63;30.70;;;3.30;99.90;;;;;;4883478;29;20629;-94
2020/12/09 10:02:53;;;;;;;53.83;30.33;;;3.30;99.90;;;;;;4883382;29;20254;-93
2020/12/09 10:05:32;;;;;;;59.53;31.33;;;3.30;99.90;;;;;;4883519;29;20207;-94
2020/12/09 10:07:57;;;;;;;61.67;32.83;;;3.30;99.90;;;;;;4883430;29;20666;-95
2020/12/09 10:10:23;;;;;;;59.80;31.93;;;3.30;99.90;;;;;;4883762;29;20281;-93
2020/12/09 10:12:49;;;;;;;59.73;32.73;;;3.30;99.90;;;;;;4884248;29;20190;-96
2020/12/09 10:15:14;;;;;;;62.90;32.40;;;3.30;99.90;;;;;;4883996;29;20198;-93
2020/12/09 10:17:40;;;;;;;62.63;31.93;;;3.20;99.90;;;;;;4884406;29;20188;-95
2020/12/09 10:20:05;;;;;;;63.27;33.20;;;3.30;99.90;;;;;;4884356;29;20194;-93
2020/12/09 10:22:31;;;;;;;61.50;32.23;;;3.30;99.90;;;;;;4900356;29;20522;-92
2020/12/09 10:25:04;;;;;;;65.00;32.80;;;3.30;99.90;;;;;;4883833;29;20683;-96
2020/12/09 10:27:29;;;;;;;66.40;34.83;;;3.40;99.90;;;;;;4883136;29;20230;-95
2020/12/09 10:29:55;;;;;;;64.33;33.20;;;3.40;99.90;;;;;;4865033;29;20279;-92
2020/12/09 10:32:21;;;;;;;62.57;32.50;;;3.40;99.90;;;;;;4865277;29;20183;-94
2020/12/09 10:34:49;;;;;;;65.43;34.13;;;3.40;99.90;;;;;;4865120;29;20187;-96
2020/12/09 10:37:15;;;;;;;63.33;32.50;;;3.50;99.90;;;;;;4864875;29;20319;-93
2020/12/09 10:39:40;;;;;;;64.27;34.60;;;3.50;99.90;;;;;;4864929;29;20628;-95
2020/12/09 10:42:06;;;;;;;62.23;33.47;;;3.50;99.90;;;;;;4865447;29;20187;-96
2020/12/09 10:44:33;;;;;;;63.87;33.93;;;3.50;99.90;;;;;;4865011;29;20222;-96
2020/12/09 10:47:01;;;;;;;69.00;34.77;;;3.50;99.90;;;;;;4865492;29;20179;-95
2020/12/09 10:49:32;;;;;;;68.90;34.70;;;3.50;99.90;;;;;;4865733;29;20187;-95
2020/12/09 10:51:58;;;;;;;64.17;33.60;;;3.60;99.90;;;;;;4865064;29;20190;-92
2020/12/09 10:54:29;;;;;;;70.97;35.30;;;3.60;99.90;;;;;;4866016;29;20646;-96
2020/12/09 10:56:54;;;;;;;63.40;33.07;;;3.60;99.90;;;;;;4868939;29;20176;-94
2020/12/09 10:59:20;;;;;;;69.33;34.97;;;3.60;99.90;;;;;;4868601;29;20691;-95
2020/12/09 11:01:46;;;;;;;69.70;36.63;;;3.60;99.90;;;;;;4869030;29;20176;-93
2020/12/09 11:04:12;;;;;;;70.97;34.90;;;3.60;99.90;;;;;;4868523;29;20307;-95
2020/12/09 11:06:38;;;;;;;70.77;35.83;;;3.60;99.90;;;;;;4868829;29;20235;-96
2020/12/09 11:09:06;;;;;;;66.70;34.80;;;3.60;99.90;;;;;;4869710;29;20208;-95
2020/12/09 11:11:33;;;;;;;71.33;34.70;;;3.60;99.90;;;;;;4885187;29;20191;-94
2020/12/09 11:13:58;;;;;;;67.53;36.27;;;3.60;99.90;;;;;;4886923;29;20854;-94
2020/12/09 11:16:28;;;;;;;65.53;34.10;;;3.60;99.90;;;;;;4887501;29;20190;-95
2020/12/09 11:18:54;;;;;;;72.53;34.97;;;3.60;99.90;;;;;;4886528;29;20187;-93
2020/12/09 11:21:21;;;;;;;73.67;36.43;;;3.60;99.90;;;;;;4886514;29;20190;-93
2020/12/09 11:23:49;;;;;;;69.43;34.70;;;3.60;99.90;;;;;;4886015;29;20217;-94
2020/12/09 11:26:23;;;;;;;66.77;34.83;;;3.60;99.90;;;;;;4886410;29;20209;-92
2020/12/09 11:28:50;;;;;;;63.10;32.50;;;3.60;99.90;;;;;;4885828;29;20270;-92
2020/12/09 11:31:21;;;;;;;63.90;32.83;;;3.60;99.90;;;;;;4886242;29;20277;-95
2020/12/09 11:33:48;;;;;;;69.33;34.97;;;3.60;99.90;;;;;;4886415;29;20297;-93
2020/12/09 11:36:27;;;;;;;67.10;34.10;;;3.60;99.90;;;;;;4885967;29;20184;-96
2020/12/09 11:38:53;;;;;;;69.23;34.47;;;3.60;99.90;;;;;;4868806;29;20228;-93
2020/12/09 11:41:24;;;;;;;71.20;35.27;;;3.60;99.90;;;;;;4877457;29;20246;-92
2020/12/09 11:43:50;;;;;;;66.87;33.80;;;3.70;99.90;;;;;;4882686;29;20215;-94
2020/12/09 11:46:17;;;;;;;60.03;32.10;;;3.70;99.90;;;;;;4885798;29;20184;-93
2020/12/09 11:48:43;;;;;;;72.93;35.33;;;3.70;99.90;;;;;;4886015;29;20176;-93
2020/12/09 11:51:11;;;;;;;70.73;34.50;;;3.70;99.90;;;;;;4886107;29;20511;-91
2020/12/09 11:53:37;;;;;;;80.73;36.07;;;3.70;99.90;;;;;;4902871;29;20191;-94
2020/12/09 11:56:04;;;;;;;66.57;34.80;;;3.80;99.90;;;;;;4886661;29;20179;-94
2020/12/09 11:58:30;;;;;;;73.33;35.17;;;3.70;99.90;;;;;;4886764;29;20191;-93
2020/12/09 12:00:56;;;;;;;65.07;33.47;;;3.80;99.90;;;;;;4902361;29;20171;-94
2020/12/09 12:03:21;;;;;;;66.37;34.03;;;3.80;99.90;;;;;;4886081;29;20294;-93
2020/12/09 12:06:01;;;;;;;65.87;34.70;;;3.80;99.90;;;;;;4885012;29;20187;-96
2020/12/09 12:08:26;;;;;;;72.93;34.83;;;3.80;99.90;;;;;;4886212;29;20202;-96
2020/12/09 12:10:52;;;;;;;71.17;34.07;;;3.80;99.90;;;;;;4885936;29;20183;-96
2020/12/09 12:13:18;;;;;;;67.50;34.13;;;3.80;99.90;;;;;;4885698;29;20246;-95
2020/12/09 12:15:47;;;;;;;70.87;34.77;;;3.80;99.90;;;;;;4886036;29;20191;-92
2020/12/09 12:18:12;;;;;;;67.97;33.33;;;3.80;99.90;;;;;;4885095;29;20245;-93
2020/12/09 12:20:38;;;;;;;71.73;35.47;;;3.80;99.90;;;;;;4885248;29;20185;-92
2020/12/09 12:23:03;;;;;;;69.50;34.77;;;3.80;99.90;;;;;;4884933;29;20245;-93
2020/12/09 12:25:29;;;;;;;69.37;33.03;;;3.80;99.90;;;;;;4885098;29;20258;-92
2020/12/09 12:27:55;;;;;;;65.27;33.57;;;3.80;99.90;;;;;;4884825;29;20245;-94
2020/12/09 12:30:21;;;;;;;64.97;33.27;;;3.80;99.90;;;;;;4884851;29;20211;-91
2020/12/09 12:32:47;;;;;;;69.63;34.10;;;3.80;99.90;;;;;;4885303;29;20196;-94
2020/12/09 12:35:12;;;;;;;67.27;33.10;;;3.80;99.90;;;;;;4885000;29;20214;-94
2020/12/09 12:37:43;;;;;;;61.50;32.30;;;3.90;99.90;;;;;;4885191;29;20183;-93
2020/12/09 12:40:09;;;;;;;58.97;30.97;;;3.90;99.90;;;;;;4901560;29;20176;-95